sensor_id;sensor_type;location;lat;lon;timestamp;pressure;altitude;pressure_sealevel;temperature;humidity
21817;BME280;13247;47.504;7.382;2023-01-20T15:22:20;97453.66;;;1.99;100.00
21817;BME280;13247;47.504;7.382;2023-01-20T15:25:11;97453.75;;;2.21;100.00
21817;BME280;13247;47.504;7.382;2023-01-20T15:27:57;97461.50;;;2.21;100.00
21817;BME280;13247;47.504;7.382;2023-01-20T15:30:41;97465.75;;;2.00;100.00
21817;BME280;13247;47.504;7.382;2023-01-20T15:33:26;97471.69;;;1.88;100.00
21817;BME280;13247;47.504;7.382;2023-01-20T15:36:37;97466.53;;;1.88;100.00
21817;BME280;13247;47.504;7.382;2023-01-20T15:39:26;97461.22;;;1.59;100.00
21817;BME280;13247;47.504;7.382;2023-01-20T15:42:14;97472.19;;;1.22;100.00
21817;BME280;13247;47.504;7.382;2023-01-20T15:45:01;97471.31;;;1.22;100.00
21817;BME280;13247;47.504;7.382;2023-01-20T15:47:46;97467.16;;;1.39;100.00
21817;BME280;13247;47.504;7.382;2023-01-20T15:50:31;97470.59;;;1.41;100.00
21817;BME280;13247;47.504;7.382;2023-01-20T15:53:16;97472.38;;;1.49;100.00
21817;BME280;13247;47.504;7.382;2023-01-20T15:56:01;97473.47;;;1.95;100.00
21817;BME280;13247;47.504;7.382;2023-01-20T15:58:47;97470.53;;;1.32;100.00
21817;BME280;13247;47.504;7.382;2023-01-20T16:01:32;97468.72;;;1.17;100.00
21817;BME280;13247;47.504;7.382;2023-01-20T16:04:16;97478.78;;;0.87;100.00
21817;BME280;13247;47.504;7.382;2023-01-20T16:07:01;97487.09;;;0.54;100.00
21817;BME280;13247;47.504;7.382;2023-01-20T16:09:46;97485.06;;;0.26;100.00
21817;BME280;13247;47.504;7.382;2023-01-20T16:12:31;97484.19;;;0.24;100.00
21817;BME280;13247;47.504;7.382;2023-01-20T16:15:16;97481.72;;;0.36;100.00
21817;BME280;13247;47.504;7.382;2023-01-20T16:18:01;97492.16;;;0.45;100.00
21817;BME280;13247;47.504;7.382;2023-01-20T16:20:47;97486.94;;;0.42;100.00
21817;BME280;13247;47.504;7.382;2023-01-20T16:23:33;97491.31;;;0.48;100.00
21817;BME280;13247;47.504;7.382;2023-01-20T16:26:23;97495.63;;;0.49;100.00
21817;BME280;13247;47.504;7.382;2023-01-20T16:29:09;97490.50;;;0.53;100.00
21817;BME280;13247;47.504;7.382;2023-01-20T16:31:53;97498.19;;;0.46;100.00
21817;BME280;13247;47.504;7.382;2023-01-20T16:34:38;97505.75;;;0.32;100.00
21817;BME280;13247;47.504;7.382;2023-01-20T16:37:23;97507.88;;;-0.07;100.00
21817;BME280;13247;47.504;7.382;2023-01-20T16:40:19;97510.84;;;-0.41;100.00
21817;BME280;13247;47.504;7.382;2023-01-20T16:43:04;97513.19;;;-0.59;100.00
21817;BME280;13247;47.504;7.382;2023-01-20T16:45:50;97523.44;;;-0.61;100.00
21817;BME280;13247;47.504;7.382;2023-01-20T16:48:37;97521.25;;;-0.34;100.00
21817;BME280;13247;47.504;7.382;2023-01-20T16:51:23;97521.06;;;-0.49;100.00
21817;BME280;13247;47.504;7.382;2023-01-20T16:54:09;97522.47;;;-0.69;100.00
21817;BME280;13247;47.504;7.382;2023-01-20T16:56:54;97532.09;;;-0.57;100.00
21817;BME280;13247;47.504;7.382;2023-01-20T16:59:39;97528.66;;;-0.55;100.00
21817;BME280;13247;47.504;7.382;2023-01-20T17:02:23;97534.69;;;-0.56;100.00
21817;BME280;13247;47.504;7.382;2023-01-20T17:05:08;97544.81;;;-0.66;100.00
21817;BME280;13247;47.504;7.382;2023-01-20T17:07:54;97541.91;;;-0.32;100.00
21817;BME280;13247;47.504;7.382;2023-01-20T17:10:46;97547.56;;;-0.54;100.00
21817;BME280;13247;47.504;7.382;2023-01-20T17:13:31;97550.38;;;-0.39;100.00
21817;BME280;13247;47.504;7.382;2023-01-20T17:16:16;97556.03;;;-1.14;100.00
21817;BME280;13247;47.504;7.382;2023-01-20T17:19:02;97548.72;;;-0.90;100.00
21817;BME280;13247;47.504;7.382;2023-01-20T17:21:47;97548.75;;;-0.34;100.00
21817;BME280;13247;47.504;7.382;2023-01-20T17:24:33;97544.50;;;-0.29;100.00
21817;BME280;13247;47.504;7.382;2023-01-20T17:27:18;97548.09;;;-0.18;100.00
21817;BME280;13247;47.504;7.382;2023-01-20T17:30:04;97551.97;;;-0.49;100.00
21817;BME280;13247;47.504;7.382;2023-01-20T17:32:50;97554.84;;;-0.83;100.00
21817;BME280;13247;47.504;7.382;2023-01-20T17:35:35;97559.44;;;-0.64;100.00
21817;BME280;13247;47.504;7.382;2023-01-20T17:38:20;97557.44;;;-0.80;100.00
21817;BME280;13247;47.504;7.382;2023-01-20T17:41:07;97560.97;;;-1.24;100.00
21817;BME280;13247;47.504;7.382;2023-01-20T17:43:52;97572.53;;;-1.03;100.00
21817;BME280;13247;47.504;7.382;2023-01-20T17:46:37;97571.50;;;-1.12;100.00
21817;BME280;13247;47.504;7.382;2023-01-20T17:49:22;97572.63;;;-0.97;100.00
21817;BME280;13247;47.504;7.382;2023-01-20T17:52:06;97576.31;;;-0.83;100.00
21817;BME280;13247;47.504;7.382;2023-01-20T17:54:51;97576.00;;;-1.01;100.00
21817;BME280;13247;47.504;7.382;2023-01-20T17:57:35;97574.78;;;-1.21;100.00
21817;BME280;13247;47.504;7.382;2023-01-20T18:00:20;97578.53;;;-1.04;100.00
21817;BME280;13247;47.504;7.382;2023-01-20T18:03:05;97581.84;;;-1.08;100.00
21817;BME280;13247;47.504;7.382;2023-01-20T18:05:49;97581.91;;;-1.51;100.00
21817;BME280;13247;47.504;7.382;2023-01-20T18:08:37;97588.06;;;-1.43;100.00
21817;BME280;13247;47.504;7.382;2023-01-20T18:11:23;97588.06;;;-1.86;100.00
21817;BME280;13247;47.504;7.382;2023-01-20T18:14:08;97582.84;;;-1.89;100.00
21817;BME280;13247;47.504;7.382;2023-01-20T18:16:53;97580.19;;;-1.94;100.00
21817;BME280;13247;47.504;7.382;2023-01-20T18:19:37;97582.47;;;-2.07;100.00
21817;BME280;13247;47.504;7.382;2023-01-20T18:22:22;97595.59;;;-1.94;100.00
21817;BME280;13247;47.504;7.382;2023-01-20T18:25:07;97589.53;;;-1.57;100.00
21817;BME280;13247;47.504;7.382;2023-01-20T18:27:52;97591.03;;;-1.23;100.00
21817;BME280;13247;47.504;7.382;2023-01-20T18:30:38;97586.06;;;-1.58;100.00
21817;BME280;13247;47.504;7.382;2023-01-20T18:33:23;97586.94;;;-1.57;100.00
21817;BME280;13247;47.504;7.382;2023-01-20T18:36:10;97587.88;;;-1.53;100.00
21817;BME280;13247;47.504;7.382;2023-01-20T18:38:58;97588.13;;;-1.40;100.00
21817;BME280;13247;47.504;7.382;2023-01-20T18:41:44;97585.56;;;-1.40;100.00
21817;BME280;13247;47.504;7.382;2023-01-20T18:44:29;97582.00;;;-1.48;100.00
21817;BME280;13247;47.504;7.382;2023-01-20T18:47:14;97585.75;;;-1.74;100.00
21817;BME280;13247;47.504;7.382;2023-01-20T18:49:58;97584.16;;;-1.68;100.00
21817;BME280;13247;47.504;7.382;2023-01-20T18:52:43;97578.31;;;-1.61;100.00
21817;BME280;13247;47.504;7.382;2023-01-20T18:55:28;97584.84;;;-1.76;100.00
21817;BME280;13247;47.504;7.382;2023-01-20T18:58:15;97579.41;;;-1.48;100.00
21817;BME280;13247;47.504;7.382;2023-01-20T19:03:47;97581.00;;;-1.54;100.00
21817;BME280;13247;47.504;7.382;2023-01-20T19:06:36;97587.19;;;-1.45;100.00
21817;BME280;13247;47.504;7.382;2023-01-20T19:09:21;97593.56;;;-1.68;100.00
21817;BME280;13247;47.504;7.382;2023-01-20T19:12:06;97593.31;;;-2.20;100.00
21817;BME280;13247;47.504;7.382;2023-01-20T19:14:51;97581.25;;;-1.84;100.00
21817;BME280;13247;47.504;7.382;2023-01-20T19:17:38;97587.41;;;-1.76;100.00
21817;BME280;13247;47.504;7.382;2023-01-20T19:20:22;97579.91;;;-2.07;100.00
21817;BME280;13247;47.504;7.382;2023-01-20T19:23:07;97587.66;;;-2.04;100.00
21817;BME280;13247;47.504;7.382;2023-01-20T19:26:02;97576.03;;;-1.87;100.00
21817;BME280;13247;47.504;7.382;2023-01-20T19:28:54;97579.59;;;-1.82;100.00
21817;BME280;13247;47.504;7.382;2023-01-20T19:31:39;97582.47;;;-1.67;100.00
21817;BME280;13247;47.504;7.382;2023-01-20T19:34:24;97581.84;;;-1.96;100.00
21817;BME280;13247;47.504;7.382;2023-01-20T19:37:10;97583.59;;;-1.95;100.00
21817;BME280;13247;47.504;7.382;2023-01-20T19:39:55;97584.09;;;-2.11;100.00
21817;BME280;13247;47.504;7.382;2023-01-20T19:42:40;97581.72;;;-2.02;100.00
21817;BME280;13247;47.504;7.382;2023-01-20T19:45:25;97590.25;;;-2.04;100.00
21817;BME280;13247;47.504;7.382;2023-01-20T19:48:10;97585.88;;;-2.08;100.00
21817;BME280;13247;47.504;7.382;2023-01-20T19:50:55;97585.75;;;-2.14;100.00
21817;BME280;13247;47.504;7.382;2023-01-20T19:53:40;97588.66;;;-1.99;100.00
21817;BME280;13247;47.504;7.382;2023-01-20T19:56:27;97587.50;;;-2.13;100.00
21817;BME280;13247;47.504;7.382;2023-01-20T19:59:13;97586.53;;;-2.18;100.00
21817;BME280;13247;47.504;7.382;2023-01-20T20:01:58;97579.72;;;-2.15;100.00
21817;BME280;13247;47.504;7.382;2023-01-20T20:04:43;97586.00;;;-2.41;100.00
21817;BME280;13247;47.504;7.382;2023-01-20T20:07:27;97594.41;;;-2.48;100.00
21817;BME280;13247;47.504;7.382;2023-01-20T20:10:11;97603.25;;;-2.35;100.00
21817;BME280;13247;47.504;7.382;2023-01-20T20:12:56;97597.47;;;-2.25;100.00
21817;BME280;13247;47.504;7.382;2023-01-20T20:15:40;97596.75;;;-2.20;100.00
21817;BME280;13247;47.504;7.382;2023-01-20T20:18:25;97595.97;;;-2.53;100.00
21817;BME280;13247;47.504;7.382;2023-01-20T20:21:09;97607.78;;;-2.60;100.00
21817;BME280;13247;47.504;7.382;2023-01-20T20:23:56;97614.63;;;-2.96;100.00
21817;BME280;13247;47.504;7.382;2023-01-20T20:26:42;97615.09;;;-3.10;100.00
21817;BME280;13247;47.504;7.382;2023-01-20T20:29:29;97614.91;;;-3.17;100.00
21817;BME280;13247;47.504;7.382;2023-01-20T20:32:13;97606.47;;;-3.12;100.00
21817;BME280;13247;47.504;7.382;2023-01-20T20:34:59;97614.13;;;-3.14;100.00
21817;BME280;13247;47.504;7.382;2023-01-20T20:37:44;97610.97;;;-3.04;100.00
21817;BME280;13247;47.504;7.382;2023-01-20T20:40:31;97608.41;;;-2.70;100.00
21817;BME280;13247;47.504;7.382;2023-01-20T20:43:16;97613.25;;;-2.82;100.00
21817;BME280;13247;47.504;7.382;2023-01-20T20:46:02;97609.16;;;-2.75;100.00
21817;BME280;13247;47.504;7.382;2023-01-20T20:48:47;97605.22;;;-2.24;100.00
21817;BME280;13247;47.504;7.382;2023-01-20T20:51:33;97607.28;;;-2.08;100.00
21817;BME280;13247;47.504;7.382;2023-01-20T20:54:17;97603.22;;;-1.98;100.00
21817;BME280;13247;47.504;7.382;2023-01-20T20:57:02;97600.09;;;-1.84;100.00
21817;BME280;13247;47.504;7.382;2023-01-20T20:59:47;97603.38;;;-1.92;100.00
21817;BME280;13247;47.504;7.382;2023-01-20T21:02:32;97596.22;;;-2.05;100.00
21817;BME280;13247;47.504;7.382;2023-01-20T21:05:16;97597.72;;;-2.15;100.00
21817;BME280;13247;47.504;7.382;2023-01-20T21:08:02;97593.09;;;-1.92;100.00
21817;BME280;13247;47.504;7.382;2023-01-20T21:10:49;97593.69;;;-1.62;100.00
21817;BME280;13247;47.504;7.382;2023-01-20T21:13:34;97591.38;;;-1.50;100.00
21817;BME280;13247;47.504;7.382;2023-01-20T21:16:20;97586.69;;;-1.24;100.00
21817;BME280;13247;47.504;7.382;2023-01-20T21:19:06;97593.78;;;-1.58;100.00
21817;BME280;13247;47.504;7.382;2023-01-20T21:21:51;97583.72;;;-1.89;100.00
21817;BME280;13247;47.504;7.382;2023-01-20T21:24:36;97587.56;;;-1.69;100.00
21817;BME280;13247;47.504;7.382;2023-01-20T21:27:21;97587.69;;;-1.63;100.00
21817;BME280;13247;47.504;7.382;2023-01-20T21:30:06;97590.47;;;-1.52;100.00
21817;BME280;13247;47.504;7.382;2023-01-20T21:32:51;97592.53;;;-1.33;100.00
21817;BME280;13247;47.504;7.382;2023-01-20T21:35:37;97592.72;;;-1.24;100.00
21817;BME280;13247;47.504;7.382;2023-01-20T21:38:22;97584.19;;;-1.23;100.00
21817;BME280;13247;47.504;7.382;2023-01-20T21:41:08;97587.75;;;-1.15;100.00
21817;BME280;13247;47.504;7.382;2023-01-20T21:43:53;97585.19;;;-1.13;100.00
21817;BME280;13247;47.504;7.382;2023-01-20T21:46:58;97589.47;;;-1.14;100.00
21817;BME280;13247;47.504;7.382;2023-01-20T21:49:44;97592.97;;;-1.10;100.00
21817;BME280;13247;47.504;7.382;2023-01-20T21:52:47;97601.44;;;-1.16;100.00
21817;BME280;13247;47.504;7.382;2023-01-20T21:55:36;97598.88;;;-1.16;100.00
21817;BME280;13247;47.504;7.382;2023-01-20T21:58:21;97595.94;;;-0.89;100.00
21817;BME280;13247;47.504;7.382;2023-01-20T22:01:05;97599.59;;;-0.73;100.00
21817;BME280;13247;47.504;7.382;2023-01-20T22:03:50;97596.78;;;-0.89;100.00
21817;BME280;13247;47.504;7.382;2023-01-20T22:06:34;97596.78;;;-1.36;100.00
21817;BME280;13247;47.504;7.382;2023-01-20T22:09:19;97600.00;;;-1.48;100.00
21817;BME280;13247;47.504;7.382;2023-01-20T22:12:04;97594.22;;;-1.78;100.00
21817;BME280;13247;47.504;7.382;2023-01-20T22:14:48;97595.25;;;-1.70;100.00
21817;BME280;13247;47.504;7.382;2023-01-20T22:17:33;97594.84;;;-1.90;100.00
21817;BME280;13247;47.504;7.382;2023-01-20T22:20:18;97604.97;;;-1.97;100.00
21817;BME280;13247;47.504;7.382;2023-01-20T22:23:03;97601.25;;;-1.71;100.00
21817;BME280;13247;47.504;7.382;2023-01-20T22:25:52;97608.22;;;-1.64;100.00
21817;BME280;13247;47.504;7.382;2023-01-20T22:28:37;97604.88;;;-1.60;100.00
21817;BME280;13247;47.504;7.382;2023-01-20T22:31:23;97607.63;;;-1.51;100.00
21817;BME280;13247;47.504;7.382;2023-01-20T22:34:08;97608.81;;;-1.34;100.00
21817;BME280;13247;47.504;7.382;2023-01-20T22:36:54;97612.59;;;-1.17;100.00
21817;BME280;13247;47.504;7.382;2023-01-20T22:39:40;97619.75;;;-0.99;100.00
21817;BME280;13247;47.504;7.382;2023-01-20T22:42:25;97630.00;;;-1.02;100.00
21817;BME280;13247;47.504;7.382;2023-01-20T22:45:10;97625.25;;;-1.26;100.00
21817;BME280;13247;47.504;7.382;2023-01-20T22:47:55;97628.53;;;-1.34;100.00
21817;BME280;13247;47.504;7.382;2023-01-20T22:50:39;97629.81;;;-1.13;100.00
21817;BME280;13247;47.504;7.382;2023-01-20T22:53:24;97619.09;;;-1.35;100.00
21817;BME280;13247;47.504;7.382;2023-01-20T22:56:17;97626.72;;;-1.40;100.00
21817;BME280;13247;47.504;7.382;2023-01-20T22:59:02;97632.72;;;-1.39;100.00
21817;BME280;13247;47.504;7.382;2023-01-20T23:01:47;97632.84;;;-1.33;100.00
21817;BME280;13247;47.504;7.382;2023-01-20T23:04:32;97630.09;;;-1.41;100.00
21817;BME280;13247;47.504;7.382;2023-01-20T23:07:17;97635.09;;;-1.50;100.00
21817;BME280;13247;47.504;7.382;2023-01-20T23:10:03;97635.94;;;-1.49;100.00
21817;BME280;13247;47.504;7.382;2023-01-20T23:12:50;97630.22;;;-1.35;100.00
21817;BME280;13247;47.504;7.382;2023-01-20T23:15:35;97629.50;;;-1.28;100.00
21817;BME280;13247;47.504;7.382;2023-01-20T23:18:20;97632.16;;;-1.25;100.00
21817;BME280;13247;47.504;7.382;2023-01-20T23:21:05;97633.69;;;-1.33;100.00
21817;BME280;13247;47.504;7.382;2023-01-20T23:23:49;97635.44;;;-1.32;100.00
21817;BME280;13247;47.504;7.382;2023-01-20T23:26:37;97621.50;;;-1.43;100.00
21817;BME280;13247;47.504;7.382;2023-01-20T23:29:22;97627.28;;;-1.54;100.00
21817;BME280;13247;47.504;7.382;2023-01-20T23:32:07;97623.34;;;-1.37;100.00
21817;BME280;13247;47.504;7.382;2023-01-20T23:34:52;97621.72;;;-1.31;100.00
21817;BME280;13247;47.504;7.382;2023-01-20T23:37:36;97627.59;;;-1.38;100.00
21817;BME280;13247;47.504;7.382;2023-01-20T23:40:21;97614.09;;;-1.28;100.00
21817;BME280;13247;47.504;7.382;2023-01-20T23:43:06;97610.75;;;-1.22;100.00
21817;BME280;13247;47.504;7.382;2023-01-20T23:45:50;97607.34;;;-1.21;100.00
21817;BME280;13247;47.504;7.382;2023-01-20T23:48:35;97614.22;;;-1.20;100.00
21817;BME280;13247;47.504;7.382;2023-01-20T23:51:21;97610.81;;;-1.19;100.00
21817;BME280;13247;47.504;7.382;2023-01-20T23:54:05;97616.66;;;-1.28;100.00
21817;BME280;13247;47.504;7.382;2023-01-20T23:56:51;97614.00;;;-1.32;100.00
21817;BME280;13247;47.504;7.382;2023-01-20T23:59:35;97622.16;;;-1.53;100.00
